TimeMDT,TemperatureF,Dew PointF,Humidity,Sea Level PressureIn,VisibilityMPH,Wind Direction,Wind SpeedMPH,Gust SpeedMPH,PrecipitationIn,Events,Conditions,WindDirDegrees,DateUTC
12:58 AM,70.5,46.2,42,29.77,10.0,South,21.9,-,N/A,,Clear,180,2013-05-24 06:58:00
1:58 AM,69.6,45.9,43,29.78,10.0,South,18.4,-,N/A,,Clear,170,2013-05-24 07:58:00
2:58 AM,71.1,43.0,36,29.77,10.0,SSE,17.3,24.2,N/A,,Clear,160,2013-05-24 08:58:00
3:58 AM,70.3,41.9,36,29.78,10.0,South,15.0,-,N/A,,Clear,170,2013-05-24 09:58:00
4:58 AM,68.5,44.2,42,29.80,10.0,South,11.5,-,N/A,,Clear,190,2013-05-24 10:58:00
5:58 AM,66.2,45.1,47,29.82,10.0,South,10.4,-,N/A,,Clear,180,2013-05-24 11:58:00
6:58 AM,69.6,45.9,43,29.84,10.0,SSE,16.1,-,N/A,,Clear,160,2013-05-24 12:58:00
7:58 AM,74.5,45.7,36,29.86,10.0,SSE,16.1,-,N/A,,Clear,160,2013-05-24 13:58:00
8:58 AM,76.8,46.9,35,29.89,10.0,South,16.1,20.7,N/A,,Clear,170,2013-05-24 14:58:00
9:58 AM,-9999,-9999,N/A,-9999,-9999.0,North,-9999.0,-,N/A,,Clear,0,2013-05-24 15:58:00
10:58 AM,-9999,-9999,N/A,-9999,-9999.0,North,-9999.0,-,N/A,,Partly Cloudy,0,2013-05-24 16:58:00
11:58 AM,-9999,-9999,N/A,-9999,-9999.0,North,-9999.0,-,N/A,,Clear,0,2013-05-24 17:58:00
12:29 PM,-9999,-9999,N/A,-9999,10.0,Variable,4.6,-,N/A,,Partly Cloudy,0,2013-05-24 18:29:00
12:58 PM,-9999,-9999,N/A,-9999,10.0,South,9.2,-,N/A,,Mostly Cloudy,190,2013-05-24 18:58:00
1:58 PM,88.7,38.3,17,29.81,10.0,SSW,9.2,-,N/A,,Partly Cloudy,210,2013-05-24 19:58:00
2:58 PM,91.8,28.6,10,29.77,10.0,SW,6.9,17.3,N/A,,Clear,220,2013-05-24 20:58:00
3:58 PM,93.2,35.8,13,29.74,10.0,South,10.4,-,N/A,,Clear,190,2013-05-24 21:58:00
4:47 PM,93.2,35.6,13,29.94,10.0,SSW,15.0,-,N/A,,Clear,210,2013-05-24 22:47:00
4:58 PM,92.7,34.5,13,29.73,10.0,South,13.8,-,N/A,,Clear,180,2013-05-24 22:58:00
5:11 PM,93.2,33.8,12,29.93,10.0,SSW,12.7,20.7,N/A,,Clear,200,2013-05-24 23:11:00
5:58 PM,92.5,33.6,12,29.70,10.0,SSW,12.7,-,N/A,,Clear,200,2013-05-24 23:58:00
6:58 PM,91.2,34.5,13,29.69,10.0,SSW,11.5,-,N/A,,Clear,200,2013-05-25 00:58:00
7:58 PM,88.2,32.0,13,29.71,10.0,SSW,8.1,-,N/A,,Clear,200,2013-05-25 01:58:00
8:58 PM,82.8,32.7,16,29.73,10.0,South,3.5,-,N/A,,Clear,190,2013-05-25 02:58:00
9:58 PM,77.0,33.1,20,29.98,10.0,SSE,17.3,20.7,N/A,,Partly Cloudy,160,2013-05-25 03:58:00
10:58 PM,79.7,42.8,27,30.00,10.0,SE,8.1,-,N/A,,Clear,140,2013-05-25 04:58:00
11:58 PM,77.0,40.5,27,29.99,10.0,South,11.5,-,N/A,,Clear,170,2013-05-25 05:58:00